sensor_id;sensor_type;location;lat;lon;timestamp;P1;durP1;ratioP1;P2;durP2;ratioP2
44048;SDS011;29717;47.028;15.470;2023-05-29T00:00:39;10.55;;;6.10;;
44048;SDS011;29717;47.028;15.470;2023-05-29T00:03:40;7.40;;;5.30;;
44048;SDS011;29717;47.028;15.470;2023-05-29T00:08:54;8.23;;;5.72;;
44048;SDS011;29717;47.028;15.470;2023-05-29T00:11:41;8.85;;;5.65;;
44048;SDS011;29717;47.028;15.470;2023-05-29T00:14:17;8.48;;;5.55;;
44048;SDS011;29717;47.028;15.470;2023-05-29T00:16:45;8.15;;;5.47;;
44048;SDS011;29717;47.028;15.470;2023-05-29T00:19:17;7.63;;;5.90;;
44048;SDS011;29717;47.028;15.470;2023-05-29T00:21:56;9.73;;;6.22;;
44048;SDS011;29717;47.028;15.470;2023-05-29T00:24:44;7.38;;;5.65;;
44048;SDS011;29717;47.028;15.470;2023-05-29T00:27:31;9.77;;;6.13;;
44048;SDS011;29717;47.028;15.470;2023-05-29T00:30:01;11.73;;;5.72;;
44048;SDS011;29717;47.028;15.470;2023-05-29T00:32:46;8.52;;;6.00;;
44048;SDS011;29717;47.028;15.470;2023-05-29T00:35:24;13.18;;;6.00;;
44048;SDS011;29717;47.028;15.470;2023-05-29T00:37:57;5.85;;;5.25;;
44048;SDS011;29717;47.028;15.470;2023-05-29T00:40:29;9.95;;;5.78;;
44048;SDS011;29717;47.028;15.470;2023-05-29T00:43:04;8.65;;;5.90;;
44048;SDS011;29717;47.028;15.470;2023-05-29T00:48:35;8.38;;;5.78;;
44048;SDS011;29717;47.028;15.470;2023-05-29T00:51:12;11.02;;;5.78;;
44048;SDS011;29717;47.028;15.470;2023-05-29T00:53:46;7.50;;;5.70;;
44048;SDS011;29717;47.028;15.470;2023-05-29T00:56:24;10.95;;;6.07;;
44048;SDS011;29717;47.028;15.470;2023-05-29T01:01:36;7.50;;;5.60;;
44048;SDS011;29717;47.028;15.470;2023-05-29T01:04:16;9.27;;;5.53;;
44048;SDS011;29717;47.028;15.470;2023-05-29T01:07:02;12.70;;;6.30;;
44048;SDS011;29717;47.028;15.470;2023-05-29T01:12:19;6.88;;;5.53;;
44048;SDS011;29717;47.028;15.470;2023-05-29T01:17:57;11.00;;;5.63;;
44048;SDS011;29717;47.028;15.470;2023-05-29T01:20:42;8.80;;;5.57;;
44048;SDS011;29717;47.028;15.470;2023-05-29T01:23:21;9.60;;;5.65;;
44048;SDS011;29717;47.028;15.470;2023-05-29T01:26:02;9.32;;;6.00;;
44048;SDS011;29717;47.028;15.470;2023-05-29T01:28:39;8.52;;;6.20;;
44048;SDS011;29717;47.028;15.470;2023-05-29T01:31:22;9.45;;;6.20;;
44048;SDS011;29717;47.028;15.470;2023-05-29T01:33:55;7.45;;;5.40;;
44048;SDS011;29717;47.028;15.470;2023-05-29T01:36:29;9.43;;;5.28;;
44048;SDS011;29717;47.028;15.470;2023-05-29T01:39:21;11.80;;;5.80;;
44048;SDS011;29717;47.028;15.470;2023-05-29T01:41:54;7.55;;;5.78;;
44048;SDS011;29717;47.028;15.470;2023-05-29T01:44:31;9.75;;;5.50;;
44048;SDS011;29717;47.028;15.470;2023-05-29T01:47:24;7.32;;;5.47;;
44048;SDS011;29717;47.028;15.470;2023-05-29T01:49:57;10.38;;;6.13;;
44048;SDS011;29717;47.028;15.470;2023-05-29T01:52:38;8.80;;;5.45;;
44048;SDS011;29717;47.028;15.470;2023-05-29T01:55:22;7.90;;;5.65;;
44048;SDS011;29717;47.028;15.470;2023-05-29T01:58:08;7.32;;;5.75;;
44048;SDS011;29717;47.028;15.470;2023-05-29T02:00:58;7.40;;;5.60;;
44048;SDS011;29717;47.028;15.470;2023-05-29T02:03:27;6.95;;;6.00;;
44048;SDS011;29717;47.028;15.470;2023-05-29T02:08:58;11.38;;;6.05;;
44048;SDS011;29717;47.028;15.470;2023-05-29T02:11:32;7.45;;;5.60;;
44048;SDS011;29717;47.028;15.470;2023-05-29T02:14:27;10.23;;;6.10;;
44048;SDS011;29717;47.028;15.470;2023-05-29T02:17:07;11.05;;;6.07;;
44048;SDS011;29717;47.028;15.470;2023-05-29T02:19:37;8.68;;;5.30;;
44048;SDS011;29717;47.028;15.470;2023-05-29T02:22:05;8.18;;;6.03;;
44048;SDS011;29717;47.028;15.470;2023-05-29T02:27:04;7.95;;;5.70;;
44048;SDS011;29717;47.028;15.470;2023-05-29T02:29:32;8.88;;;5.80;;
44048;SDS011;29717;47.028;15.470;2023-05-29T02:32:04;11.32;;;6.40;;
44048;SDS011;29717;47.028;15.470;2023-05-29T02:34:34;7.05;;;5.85;;
44048;SDS011;29717;47.028;15.470;2023-05-29T02:37:03;8.13;;;5.80;;
44048;SDS011;29717;47.028;15.470;2023-05-29T02:39:33;8.18;;;6.03;;
44048;SDS011;29717;47.028;15.470;2023-05-29T02:42:05;8.40;;;5.95;;
44048;SDS011;29717;47.028;15.470;2023-05-29T02:44:32;11.40;;;6.65;;
44048;SDS011;29717;47.028;15.470;2023-05-29T02:47:00;10.77;;;5.88;;
44048;SDS011;29717;47.028;15.470;2023-05-29T02:52:28;9.98;;;6.05;;
44048;SDS011;29717;47.028;15.470;2023-05-29T02:54:57;9.18;;;6.05;;
44048;SDS011;29717;47.028;15.470;2023-05-29T02:57:33;16.02;;;6.57;;
44048;SDS011;29717;47.028;15.470;2023-05-29T03:00:20;9.63;;;6.53;;
44048;SDS011;29717;47.028;15.470;2023-05-29T03:03:01;9.10;;;5.70;;
44048;SDS011;29717;47.028;15.470;2023-05-29T03:05:33;8.52;;;6.40;;
44048;SDS011;29717;47.028;15.470;2023-05-29T03:08:05;10.00;;;6.63;;
44048;SDS011;29717;47.028;15.470;2023-05-29T03:10:45;9.93;;;6.28;;
44048;SDS011;29717;47.028;15.470;2023-05-29T03:13:37;8.27;;;5.85;;
44048;SDS011;29717;47.028;15.470;2023-05-29T03:16:14;6.68;;;5.90;;
44048;SDS011;29717;47.028;15.470;2023-05-29T03:18:47;8.85;;;6.25;;
44048;SDS011;29717;47.028;15.470;2023-05-29T03:21:25;12.48;;;6.53;;
44048;SDS011;29717;47.028;15.470;2023-05-29T03:23:57;10.15;;;6.78;;
44048;SDS011;29717;47.028;15.470;2023-05-29T03:26:28;10.02;;;6.18;;
44048;SDS011;29717;47.028;15.470;2023-05-29T03:28:59;8.05;;;6.28;;
44048;SDS011;29717;47.028;15.470;2023-05-29T03:31:33;7.32;;;5.72;;
44048;SDS011;29717;47.028;15.470;2023-05-29T03:34:11;8.30;;;5.80;;
44048;SDS011;29717;47.028;15.470;2023-05-29T03:36:58;6.80;;;5.82;;
44048;SDS011;29717;47.028;15.470;2023-05-29T03:39:40;8.02;;;5.60;;
44048;SDS011;29717;47.028;15.470;2023-05-29T03:42:10;12.60;;;6.80;;
44048;SDS011;29717;47.028;15.470;2023-05-29T03:44:39;14.32;;;5.75;;
44048;SDS011;29717;47.028;15.470;2023-05-29T03:47:10;9.00;;;6.30;;
44048;SDS011;29717;47.028;15.470;2023-05-29T03:49:46;7.72;;;6.00;;
44048;SDS011;29717;47.028;15.470;2023-05-29T03:52:34;7.93;;;5.65;;
44048;SDS011;29717;47.028;15.470;2023-05-29T03:55:12;8.52;;;6.15;;
44048;SDS011;29717;47.028;15.470;2023-05-29T03:57:43;9.73;;;6.10;;
44048;SDS011;29717;47.028;15.470;2023-05-29T04:03:02;8.07;;;5.90;;
44048;SDS011;29717;47.028;15.470;2023-05-29T04:05:33;8.45;;;6.53;;
44048;SDS011;29717;47.028;15.470;2023-05-29T04:08:05;9.70;;;6.70;;
44048;SDS011;29717;47.028;15.470;2023-05-29T04:10:41;10.52;;;6.43;;
44048;SDS011;29717;47.028;15.470;2023-05-29T04:13:10;8.10;;;5.90;;
44048;SDS011;29717;47.028;15.470;2023-05-29T04:15:52;9.30;;;6.43;;
44048;SDS011;29717;47.028;15.470;2023-05-29T04:18:31;9.27;;;6.20;;
44048;SDS011;29717;47.028;15.470;2023-05-29T04:20:59;11.80;;;6.65;;
44048;SDS011;29717;47.028;15.470;2023-05-29T04:23:37;9.63;;;6.53;;
44048;SDS011;29717;47.028;15.470;2023-05-29T04:26:28;9.38;;;6.75;;
44048;SDS011;29717;47.028;15.470;2023-05-29T04:31:32;11.45;;;6.82;;
44048;SDS011;29717;47.028;15.470;2023-05-29T04:34:08;9.93;;;6.30;;
44048;SDS011;29717;47.028;15.470;2023-05-29T04:36:40;10.18;;;6.63;;
44048;SDS011;29717;47.028;15.470;2023-05-29T04:39:18;9.07;;;6.30;;
44048;SDS011;29717;47.028;15.470;2023-05-29T04:42:16;11.68;;;6.72;;
44048;SDS011;29717;47.028;15.470;2023-05-29T04:44:56;7.72;;;6.28;;
44048;SDS011;29717;47.028;15.470;2023-05-29T04:47:34;11.45;;;6.32;;
44048;SDS011;29717;47.028;15.470;2023-05-29T04:50:10;8.10;;;6.72;;
44048;SDS011;29717;47.028;15.470;2023-05-29T04:53:00;9.43;;;7.07;;
44048;SDS011;29717;47.028;15.470;2023-05-29T04:55:46;8.02;;;6.40;;
44048;SDS011;29717;47.028;15.470;2023-05-29T04:58:22;8.23;;;6.72;;
44048;SDS011;29717;47.028;15.470;2023-05-29T05:01:01;7.10;;;6.40;;
44048;SDS011;29717;47.028;15.470;2023-05-29T05:03:45;9.23;;;6.57;;
44048;SDS011;29717;47.028;15.470;2023-05-29T05:06:22;11.90;;;7.18;;
44048;SDS011;29717;47.028;15.470;2023-05-29T05:09:02;9.48;;;6.47;;
44048;SDS011;29717;47.028;15.470;2023-05-29T05:20:40;11.25;;;7.00;;
44048;SDS011;29717;47.028;15.470;2023-05-29T05:23:36;9.68;;;7.10;;
44048;SDS011;29717;47.028;15.470;2023-05-29T05:26:09;9.77;;;6.63;;
44048;SDS011;29717;47.028;15.470;2023-05-29T05:28:54;10.95;;;6.93;;
44048;SDS011;29717;47.028;15.470;2023-05-29T05:31:35;7.63;;;6.47;;
44048;SDS011;29717;47.028;15.470;2023-05-29T05:34:42;10.18;;;6.38;;
44048;SDS011;29717;47.028;15.470;2023-05-29T05:40:13;9.73;;;6.20;;
44048;SDS011;29717;47.028;15.470;2023-05-29T05:42:40;9.63;;;6.07;;
44048;SDS011;29717;47.028;15.470;2023-05-29T05:45:07;9.38;;;6.43;;
44048;SDS011;29717;47.028;15.470;2023-05-29T05:47:34;7.40;;;6.25;;
44048;SDS011;29717;47.028;15.470;2023-05-29T05:50:01;10.18;;;6.00;;
44048;SDS011;29717;47.028;15.470;2023-05-29T05:52:28;10.15;;;6.35;;
44048;SDS011;29717;47.028;15.470;2023-05-29T05:54:57;7.20;;;6.32;;
44048;SDS011;29717;47.028;15.470;2023-05-29T05:57:26;8.50;;;6.10;;
44048;SDS011;29717;47.028;15.470;2023-05-29T05:59:53;8.18;;;5.88;;
44048;SDS011;29717;47.028;15.470;2023-05-29T06:02:20;10.23;;;6.03;;
44048;SDS011;29717;47.028;15.470;2023-05-29T06:04:47;9.93;;;5.93;;
44048;SDS011;29717;47.028;15.470;2023-05-29T06:07:14;7.75;;;5.60;;
44048;SDS011;29717;47.028;15.470;2023-05-29T06:09:41;8.20;;;6.10;;
44048;SDS011;29717;47.028;15.470;2023-05-29T06:12:08;9.27;;;6.90;;
44048;SDS011;29717;47.028;15.470;2023-05-29T06:14:37;6.80;;;5.43;;
44048;SDS011;29717;47.028;15.470;2023-05-29T06:17:03;10.35;;;5.65;;
44048;SDS011;29717;47.028;15.470;2023-05-29T06:19:30;9.48;;;6.35;;
44048;SDS011;29717;47.028;15.470;2023-05-29T06:21:57;8.18;;;5.75;;
44048;SDS011;29717;47.028;15.470;2023-05-29T06:24:24;7.18;;;5.80;;
44048;SDS011;29717;47.028;15.470;2023-05-29T06:26:51;8.30;;;6.43;;
44048;SDS011;29717;47.028;15.470;2023-05-29T06:29:18;13.00;;;6.03;;
44048;SDS011;29717;47.028;15.470;2023-05-29T06:31:46;8.02;;;5.97;;
44048;SDS011;29717;47.028;15.470;2023-05-29T06:34:13;8.30;;;5.47;;
44048;SDS011;29717;47.028;15.470;2023-05-29T06:36:40;7.70;;;5.35;;
44048;SDS011;29717;47.028;15.470;2023-05-29T06:39:07;7.90;;;5.50;;
44048;SDS011;29717;47.028;15.470;2023-05-29T06:41:34;6.88;;;5.35;;
44048;SDS011;29717;47.028;15.470;2023-05-29T06:44:01;8.50;;;6.07;;
44048;SDS011;29717;47.028;15.470;2023-05-29T06:46:28;9.50;;;5.95;;
44048;SDS011;29717;47.028;15.470;2023-05-29T06:48:56;6.57;;;5.30;;
44048;SDS011;29717;47.028;15.470;2023-05-29T06:51:23;9.35;;;5.78;;
44048;SDS011;29717;47.028;15.470;2023-05-29T06:53:50;7.60;;;5.55;;
44048;SDS011;29717;47.028;15.470;2023-05-29T06:56:17;7.32;;;5.65;;
44048;SDS011;29717;47.028;15.470;2023-05-29T06:58:44;10.43;;;5.65;;
44048;SDS011;29717;47.028;15.470;2023-05-29T07:01:11;8.95;;;5.93;;
44048;SDS011;29717;47.028;15.470;2023-05-29T07:03:37;8.55;;;5.57;;
44048;SDS011;29717;47.028;15.470;2023-05-29T07:06:06;7.25;;;5.65;;
44048;SDS011;29717;47.028;15.470;2023-05-29T07:08:33;6.50;;;5.55;;
44048;SDS011;29717;47.028;15.470;2023-05-29T07:11:00;7.45;;;5.32;;
44048;SDS011;29717;47.028;15.470;2023-05-29T07:13:27;8.38;;;4.88;;
44048;SDS011;29717;47.028;15.470;2023-05-29T07:15:54;8.55;;;5.30;;
44048;SDS011;29717;47.028;15.470;2023-05-29T07:18:21;6.38;;;4.95;;
44048;SDS011;29717;47.028;15.470;2023-05-29T07:20:48;6.78;;;4.80;;
44048;SDS011;29717;47.028;15.470;2023-05-29T07:23:16;6.40;;;4.68;;
44048;SDS011;29717;47.028;15.470;2023-05-29T07:25:43;6.13;;;4.57;;
44048;SDS011;29717;47.028;15.470;2023-05-29T07:28:10;6.18;;;4.65;;
44048;SDS011;29717;47.028;15.470;2023-05-29T07:30:37;9.23;;;4.95;;
44048;SDS011;29717;47.028;15.470;2023-05-29T07:33:04;5.22;;;4.00;;
44048;SDS011;29717;47.028;15.470;2023-05-29T07:35:31;6.65;;;4.53;;
44048;SDS011;29717;47.028;15.470;2023-05-29T07:37:58;6.43;;;4.35;;
44048;SDS011;29717;47.028;15.470;2023-05-29T07:40:27;5.80;;;4.65;;
44048;SDS011;29717;47.028;15.470;2023-05-29T07:42:54;7.22;;;4.25;;
44048;SDS011;29717;47.028;15.470;2023-05-29T07:45:21;7.93;;;4.75;;
44048;SDS011;29717;47.028;15.470;2023-05-29T07:47:48;5.97;;;3.95;;
44048;SDS011;29717;47.028;15.470;2023-05-29T07:50:14;5.55;;;4.20;;
44048;SDS011;29717;47.028;15.470;2023-05-29T07:52:42;6.53;;;4.40;;
44048;SDS011;29717;47.028;15.470;2023-05-29T07:55:09;6.15;;;3.75;;
44048;SDS011;29717;47.028;15.470;2023-05-29T07:57:37;7.47;;;4.18;;
44048;SDS011;29717;47.028;15.470;2023-05-29T08:00:05;8.13;;;4.30;;
44048;SDS011;29717;47.028;15.470;2023-05-29T08:02:32;6.53;;;4.30;;
44048;SDS011;29717;47.028;15.470;2023-05-29T08:04:59;6.68;;;4.43;;
44048;SDS011;29717;47.028;15.470;2023-05-29T08:07:26;5.63;;;4.10;;
44048;SDS011;29717;47.028;15.470;2023-05-29T08:09:54;6.00;;;4.47;;
44048;SDS011;29717;47.028;15.470;2023-05-29T08:12:21;7.78;;;4.45;;
44048;SDS011;29717;47.028;15.470;2023-05-29T08:14:50;5.18;;;4.43;;
44048;SDS011;29717;47.028;15.470;2023-05-29T08:17:16;5.72;;;4.40;;
44048;SDS011;29717;47.028;15.470;2023-05-29T08:19:43;7.90;;;4.00;;
44048;SDS011;29717;47.028;15.470;2023-05-29T08:22:11;8.77;;;4.10;;
44048;SDS011;29717;47.028;15.470;2023-05-29T08:24:38;5.53;;;3.75;;
44048;SDS011;29717;47.028;15.470;2023-05-29T08:27:05;5.68;;;3.70;;
44048;SDS011;29717;47.028;15.470;2023-05-29T08:29:32;5.97;;;3.97;;
44048;SDS011;29717;47.028;15.470;2023-05-29T08:32:03;6.43;;;4.15;;
44048;SDS011;29717;47.028;15.470;2023-05-29T08:34:30;5.90;;;4.22;;
44048;SDS011;29717;47.028;15.470;2023-05-29T08:36:57;6.18;;;4.20;;
44048;SDS011;29717;47.028;15.470;2023-05-29T08:39:24;5.95;;;4.10;;
44048;SDS011;29717;47.028;15.470;2023-05-29T08:41:51;5.70;;;3.70;;
44048;SDS011;29717;47.028;15.470;2023-05-29T08:44:22;5.90;;;3.92;;
44048;SDS011;29717;47.028;15.470;2023-05-29T08:46:49;7.88;;;4.03;;
44048;SDS011;29717;47.028;15.470;2023-05-29T08:49:20;5.95;;;4.03;;
44048;SDS011;29717;47.028;15.470;2023-05-29T08:51:49;5.97;;;4.07;;
44048;SDS011;29717;47.028;15.470;2023-05-29T08:54:18;5.40;;;3.92;;
44048;SDS011;29717;47.028;15.470;2023-05-29T08:56:45;7.10;;;4.45;;
44048;SDS011;29717;47.028;15.470;2023-05-29T08:59:12;5.10;;;3.88;;
44048;SDS011;29717;47.028;15.470;2023-05-29T09:01:39;5.32;;;3.70;;
44048;SDS011;29717;47.028;15.470;2023-05-29T09:04:07;5.90;;;3.90;;
44048;SDS011;29717;47.028;15.470;2023-05-29T09:06:36;4.97;;;3.75;;
44048;SDS011;29717;47.028;15.470;2023-05-29T09:09:03;7.32;;;3.67;;
44048;SDS011;29717;47.028;15.470;2023-05-29T09:11:30;6.28;;;3.70;;
44048;SDS011;29717;47.028;15.470;2023-05-29T09:13:58;5.60;;;4.03;;
44048;SDS011;29717;47.028;15.470;2023-05-29T09:16:25;5.78;;;4.20;;
44048;SDS011;29717;47.028;15.470;2023-05-29T09:18:51;4.35;;;3.92;;
44048;SDS011;29717;47.028;15.470;2023-05-29T09:21:25;5.20;;;3.55;;
44048;SDS011;29717;47.028;15.470;2023-05-29T09:23:53;6.65;;;3.97;;
44048;SDS011;29717;47.028;15.470;2023-05-29T09:26:21;4.75;;;3.72;;
44048;SDS011;29717;47.028;15.470;2023-05-29T09:28:48;5.30;;;3.85;;
44048;SDS011;29717;47.028;15.470;2023-05-29T09:31:15;4.63;;;3.65;;
44048;SDS011;29717;47.028;15.470;2023-05-29T09:33:46;5.53;;;3.88;;
44048;SDS011;29717;47.028;15.470;2023-05-29T09:36:19;4.07;;;3.67;;
44048;SDS011;29717;47.028;15.470;2023-05-29T09:38:46;6.60;;;3.90;;
44048;SDS011;29717;47.028;15.470;2023-05-29T09:41:14;4.40;;;3.90;;
44048;SDS011;29717;47.028;15.470;2023-05-29T09:43:47;6.03;;;3.55;;
44048;SDS011;29717;47.028;15.470;2023-05-29T09:46:15;6.28;;;4.15;;
44048;SDS011;29717;47.028;15.470;2023-05-29T09:48:43;6.70;;;3.88;;
44048;SDS011;29717;47.028;15.470;2023-05-29T09:51:19;5.80;;;3.83;;
44048;SDS011;29717;47.028;15.470;2023-05-29T09:53:47;4.70;;;4.07;;
44048;SDS011;29717;47.028;15.470;2023-05-29T09:56:17;6.72;;;4.10;;
44048;SDS011;29717;47.028;15.470;2023-05-29T09:58:44;5.32;;;4.03;;
44048;SDS011;29717;47.028;15.470;2023-05-29T10:01:12;6.90;;;3.95;;
44048;SDS011;29717;47.028;15.470;2023-05-29T10:03:41;7.78;;;3.90;;
44048;SDS011;29717;47.028;15.470;2023-05-29T10:06:08;4.70;;;3.67;;
44048;SDS011;29717;47.028;15.470;2023-05-29T10:08:38;4.80;;;3.80;;
44048;SDS011;29717;47.028;15.470;2023-05-29T10:11:09;4.07;;;3.20;;
44048;SDS011;29717;47.028;15.470;2023-05-29T10:13:42;4.80;;;3.90;;
44048;SDS011;29717;47.028;15.470;2023-05-29T10:16:14;5.78;;;4.15;;
44048;SDS011;29717;47.028;15.470;2023-05-29T10:18:42;5.18;;;4.15;;
44048;SDS011;29717;47.028;15.470;2023-05-29T10:21:11;6.38;;;3.63;;
44048;SDS011;29717;47.028;15.470;2023-05-29T10:23:38;4.72;;;3.80;;
44048;SDS011;29717;47.028;15.470;2023-05-29T10:26:06;5.38;;;3.80;;
44048;SDS011;29717;47.028;15.470;2023-05-29T10:28:37;5.28;;;3.85;;
44048;SDS011;29717;47.028;15.470;2023-05-29T10:31:09;4.45;;;3.72;;
44048;SDS011;29717;47.028;15.470;2023-05-29T10:33:49;4.78;;;3.95;;
44048;SDS011;29717;47.028;15.470;2023-05-29T10:36:18;4.82;;;3.70;;
44048;SDS011;29717;47.028;15.470;2023-05-29T10:38:47;4.63;;;3.90;;
44048;SDS011;29717;47.028;15.470;2023-05-29T10:41:30;4.25;;;3.33;;
44048;SDS011;29717;47.028;15.470;2023-05-29T10:43:59;5.45;;;3.72;;
44048;SDS011;29717;47.028;15.470;2023-05-29T10:49:21;5.28;;;4.07;;
44048;SDS011;29717;47.028;15.470;2023-05-29T10:51:48;4.70;;;4.05;;
44048;SDS011;29717;47.028;15.470;2023-05-29T10:54:16;4.82;;;3.75;;
44048;SDS011;29717;47.028;15.470;2023-05-29T10:56:51;6.85;;;4.10;;
44048;SDS011;29717;47.028;15.470;2023-05-29T10:59:18;4.15;;;3.75;;
44048;SDS011;29717;47.028;15.470;2023-05-29T11:01:45;6.03;;;4.57;;
44048;SDS011;29717;47.028;15.470;2023-05-29T11:04:29;4.82;;;3.85;;
44048;SDS011;29717;47.028;15.470;2023-05-29T11:06:58;5.78;;;4.20;;
44048;SDS011;29717;47.028;15.470;2023-05-29T11:09:29;5.22;;;4.05;;
44048;SDS011;29717;47.028;15.470;2023-05-29T11:15:02;5.97;;;4.10;;
44048;SDS011;29717;47.028;15.470;2023-05-29T11:17:30;5.93;;;4.38;;
44048;SDS011;29717;47.028;15.470;2023-05-29T11:20:00;6.43;;;4.32;;
44048;SDS011;29717;47.028;15.470;2023-05-29T11:22:31;4.82;;;3.88;;
44048;SDS011;29717;47.028;15.470;2023-05-29T11:25:00;4.30;;;3.90;;
44048;SDS011;29717;47.028;15.470;2023-05-29T11:27:27;5.20;;;4.70;;
44048;SDS011;29717;47.028;15.470;2023-05-29T11:29:54;5.05;;;4.45;;
44048;SDS011;29717;47.028;15.470;2023-05-29T11:32:23;5.05;;;3.97;;
44048;SDS011;29717;47.028;15.470;2023-05-29T11:34:52;4.90;;;4.50;;
44048;SDS011;29717;47.028;15.470;2023-05-29T11:37:23;5.05;;;4.45;;
44048;SDS011;29717;47.028;15.470;2023-05-29T11:39:50;5.43;;;4.18;;
44048;SDS011;29717;47.028;15.470;2023-05-29T11:42:17;5.95;;;3.92;;
44048;SDS011;29717;47.028;15.470;2023-05-29T11:44:44;4.65;;;4.10;;
44048;SDS011;29717;47.028;15.470;2023-05-29T11:47:11;6.03;;;4.30;;
44048;SDS011;29717;47.028;15.470;2023-05-29T11:49:40;4.88;;;4.13;;
44048;SDS011;29717;47.028;15.470;2023-05-29T11:52:08;5.03;;;4.10;;
44048;SDS011;29717;47.028;15.470;2023-05-29T11:54:36;5.45;;;3.90;;
44048;SDS011;29717;47.028;15.470;2023-05-29T11:57:03;7.40;;;4.10;;
44048;SDS011;29717;47.028;15.470;2023-05-29T11:59:31;5.22;;;4.38;;
44048;SDS011;29717;47.028;15.470;2023-05-29T12:01:58;5.65;;;3.88;;
44048;SDS011;29717;47.028;15.470;2023-05-29T12:04:25;4.30;;;3.90;;
44048;SDS011;29717;47.028;15.470;2023-05-29T12:06:52;5.10;;;4.22;;
44048;SDS011;29717;47.028;15.470;2023-05-29T12:09:25;4.80;;;4.28;;
44048;SDS011;29717;47.028;15.470;2023-05-29T12:12:00;6.43;;;4.55;;
44048;SDS011;29717;47.028;15.470;2023-05-29T12:14:27;6.20;;;4.60;;
44048;SDS011;29717;47.028;15.470;2023-05-29T12:16:54;4.78;;;4.07;;
44048;SDS011;29717;47.028;15.470;2023-05-29T12:19:21;4.60;;;4.20;;
44048;SDS011;29717;47.028;15.470;2023-05-29T12:21:48;5.15;;;4.30;;
44048;SDS011;29717;47.028;15.470;2023-05-29T12:24:17;4.85;;;4.35;;
44048;SDS011;29717;47.028;15.470;2023-05-29T12:26:45;5.55;;;4.20;;
44048;SDS011;29717;47.028;15.470;2023-05-29T12:29:14;5.25;;;4.35;;
44048;SDS011;29717;47.028;15.470;2023-05-29T12:31:41;7.60;;;4.22;;
44048;SDS011;29717;47.028;15.470;2023-05-29T12:34:08;7.28;;;4.90;;
44048;SDS011;29717;47.028;15.470;2023-05-29T12:36:35;8.13;;;4.75;;
44048;SDS011;29717;47.028;15.470;2023-05-29T12:39:05;5.60;;;4.78;;
44048;SDS011;29717;47.028;15.470;2023-05-29T12:41:34;7.30;;;4.30;;
44048;SDS011;29717;47.028;15.470;2023-05-29T12:44:01;5.88;;;4.57;;
44048;SDS011;29717;47.028;15.470;2023-05-29T12:46:35;5.32;;;4.60;;
44048;SDS011;29717;47.028;15.470;2023-05-29T12:49:11;4.57;;;4.18;;
44048;SDS011;29717;47.028;15.470;2023-05-29T12:51:40;5.20;;;4.22;;
44048;SDS011;29717;47.028;15.470;2023-05-29T12:54:07;6.47;;;4.35;;
44048;SDS011;29717;47.028;15.470;2023-05-29T12:56:34;5.00;;;4.50;;
44048;SDS011;29717;47.028;15.470;2023-05-29T12:59:01;5.85;;;4.25;;
44048;SDS011;29717;47.028;15.470;2023-05-29T13:01:29;5.65;;;3.95;;
44048;SDS011;29717;47.028;15.470;2023-05-29T13:03:56;6.63;;;4.30;;
44048;SDS011;29717;47.028;15.470;2023-05-29T13:06:23;5.40;;;4.50;;
44048;SDS011;29717;47.028;15.470;2023-05-29T13:08:50;5.53;;;4.68;;
44048;SDS011;29717;47.028;15.470;2023-05-29T13:11:17;7.50;;;5.35;;
44048;SDS011;29717;47.028;15.470;2023-05-29T13:13:44;7.55;;;4.68;;
44048;SDS011;29717;47.028;15.470;2023-05-29T13:16:12;6.40;;;5.10;;
44048;SDS011;29717;47.028;15.470;2023-05-29T13:18:40;6.20;;;4.90;;
44048;SDS011;29717;47.028;15.470;2023-05-29T13:21:07;6.13;;;4.85;;
44048;SDS011;29717;47.028;15.470;2023-05-29T13:23:35;5.30;;;4.78;;
44048;SDS011;29717;47.028;15.470;2023-05-29T13:26:03;5.68;;;4.93;;
44048;SDS011;29717;47.028;15.470;2023-05-29T13:28:30;5.50;;;4.70;;
44048;SDS011;29717;47.028;15.470;2023-05-29T13:30:57;7.18;;;5.20;;
44048;SDS011;29717;47.028;15.470;2023-05-29T13:33:24;4.93;;;4.38;;
44048;SDS011;29717;47.028;15.470;2023-05-29T13:35:53;5.93;;;4.72;;
44048;SDS011;29717;47.028;15.470;2023-05-29T13:38:19;5.35;;;4.53;;
44048;SDS011;29717;47.028;15.470;2023-05-29T13:40:46;6.38;;;5.20;;
44048;SDS011;29717;47.028;15.470;2023-05-29T13:43:13;5.93;;;4.57;;
44048;SDS011;29717;47.028;15.470;2023-05-29T13:45:40;5.30;;;4.80;;
44048;SDS011;29717;47.028;15.470;2023-05-29T13:48:07;5.68;;;5.05;;
44048;SDS011;29717;47.028;15.470;2023-05-29T13:50:34;6.53;;;4.75;;
44048;SDS011;29717;47.028;15.470;2023-05-29T13:53:02;5.75;;;4.70;;
44048;SDS011;29717;47.028;15.470;2023-05-29T13:55:29;5.43;;;4.72;;
44048;SDS011;29717;47.028;15.470;2023-05-29T13:57:56;7.18;;;5.38;;
44048;SDS011;29717;47.028;15.470;2023-05-29T14:00:23;5.65;;;4.82;;
44048;SDS011;29717;47.028;15.470;2023-05-29T14:02:50;7.95;;;5.22;;
44048;SDS011;29717;47.028;15.470;2023-05-29T14:05:17;5.20;;;4.63;;
44048;SDS011;29717;47.028;15.470;2023-05-29T14:07:44;6.32;;;5.35;;
44048;SDS011;29717;47.028;15.470;2023-05-29T14:10:12;4.68;;;4.28;;
44048;SDS011;29717;47.028;15.470;2023-05-29T14:12:39;5.28;;;4.78;;
44048;SDS011;29717;47.028;15.470;2023-05-29T14:15:07;5.97;;;5.03;;
44048;SDS011;29717;47.028;15.470;2023-05-29T14:17:34;5.80;;;4.65;;
44048;SDS011;29717;47.028;15.470;2023-05-29T14:20:01;5.43;;;4.72;;
44048;SDS011;29717;47.028;15.470;2023-05-29T14:22:29;6.90;;;4.75;;
44048;SDS011;29717;47.028;15.470;2023-05-29T14:24:57;5.10;;;4.60;;
44048;SDS011;29717;47.028;15.470;2023-05-29T14:27:27;10.23;;;5.00;;
44048;SDS011;29717;47.028;15.470;2023-05-29T14:29:53;7.03;;;4.85;;
44048;SDS011;29717;47.028;15.470;2023-05-29T14:32:20;5.03;;;4.53;;
44048;SDS011;29717;47.028;15.470;2023-05-29T14:34:47;5.72;;;4.80;;
44048;SDS011;29717;47.028;15.470;2023-05-29T14:37:15;5.60;;;4.47;;
44048;SDS011;29717;47.028;15.470;2023-05-29T14:39:42;5.65;;;4.57;;
44048;SDS011;29717;47.028;15.470;2023-05-29T14:42:09;5.28;;;4.78;;
44048;SDS011;29717;47.028;15.470;2023-05-29T14:44:37;8.52;;;4.72;;
44048;SDS011;29717;47.028;15.470;2023-05-29T14:47:04;6.03;;;4.70;;
44048;SDS011;29717;47.028;15.470;2023-05-29T14:49:31;5.25;;;4.75;;
44048;SDS011;29717;47.028;15.470;2023-05-29T14:51:59;8.10;;;4.60;;
44048;SDS011;29717;47.028;15.470;2023-05-29T14:54:28;6.13;;;4.57;;
44048;SDS011;29717;47.028;15.470;2023-05-29T14:56:55;11.93;;;4.53;;
44048;SDS011;29717;47.028;15.470;2023-05-29T14:59:22;5.22;;;4.47;;
44048;SDS011;29717;47.028;15.470;2023-05-29T15:01:52;7.78;;;4.90;;
44048;SDS011;29717;47.028;15.470;2023-05-29T15:04:19;6.10;;;4.70;;
44048;SDS011;29717;47.028;15.470;2023-05-29T15:06:47;5.80;;;4.82;;
44048;SDS011;29717;47.028;15.470;2023-05-29T15:09:14;6.05;;;4.60;;
44048;SDS011;29717;47.028;15.470;2023-05-29T15:11:41;6.80;;;4.63;;
44048;SDS011;29717;47.028;15.470;2023-05-29T15:14:08;16.05;;;5.43;;
44048;SDS011;29717;47.028;15.470;2023-05-29T15:16:35;11.63;;;5.72;;
44048;SDS011;29717;47.028;15.470;2023-05-29T15:19:03;7.15;;;5.07;;
44048;SDS011;29717;47.028;15.470;2023-05-29T15:21:30;6.85;;;4.57;;
44048;SDS011;29717;47.028;15.470;2023-05-29T15:23:57;6.22;;;4.43;;
44048;SDS011;29717;47.028;15.470;2023-05-29T15:26:24;5.15;;;4.50;;
44048;SDS011;29717;47.028;15.470;2023-05-29T15:28:52;10.10;;;5.05;;
44048;SDS011;29717;47.028;15.470;2023-05-29T15:31:19;6.35;;;4.22;;
44048;SDS011;29717;47.028;15.470;2023-05-29T15:33:47;8.55;;;5.03;;
44048;SDS011;29717;47.028;15.470;2023-05-29T15:36:16;6.03;;;4.80;;
44048;SDS011;29717;47.028;15.470;2023-05-29T15:38:45;9.68;;;5.22;;
44048;SDS011;29717;47.028;15.470;2023-05-29T15:41:12;6.90;;;4.95;;